createdAt,value
2022-09-18T00:00:57.322Z,15.03
2022-09-18T00:03:24.976Z,14.83
2022-09-18T00:05:52.538Z,14.63
2022-09-18T00:08:21.571Z,13.47
2022-09-18T00:10:49.135Z,14.37
2022-09-18T00:13:16.674Z,13.97
2022-09-18T00:15:44.226Z,14.00
2022-09-18T00:18:11.793Z,15.50
2022-09-18T00:20:39.321Z,14.33
2022-09-18T00:23:06.862Z,14.87
2022-09-18T00:25:35.721Z,13.77
2022-09-18T00:28:03.687Z,14.07
2022-09-18T00:30:31.197Z,13.77
2022-09-18T00:32:58.730Z,14.13
2022-09-18T00:35:26.386Z,14.27
2022-09-18T00:37:54.012Z,14.17
2022-09-18T00:40:21.598Z,13.70
2022-09-18T00:42:50.502Z,13.00
2022-09-18T00:45:18.132Z,12.83
2022-09-18T00:47:48.635Z,13.97
2022-09-18T00:50:19.805Z,13.20
2022-09-18T00:52:51.283Z,14.03
2022-09-18T00:55:23.924Z,13.70
2022-09-18T00:57:57.133Z,14.80
2022-09-18T01:00:25.054Z,14.60
2022-09-18T01:02:53.014Z,16.10
2022-09-18T01:05:30.590Z,15.50
2022-09-18T01:08:14.570Z,16.43
2022-09-18T01:10:56.636Z,16.00
2022-09-18T01:13:35.829Z,17.37
2022-09-18T01:16:09.999Z,17.10
2022-09-18T01:18:44.143Z,34.20
2022-09-18T01:21:14.069Z,18.60
2022-09-18T01:24:06.982Z,18.30
2022-09-18T01:26:48.717Z,18.63
2022-09-18T01:29:26.474Z,17.60
2022-09-18T01:31:58.646Z,18.00
2022-09-18T01:34:31.509Z,20.17
2022-09-18T01:37:04.419Z,18.93
2022-09-18T01:39:38.642Z,18.70
2022-09-18T01:42:09.310Z,18.40
2022-09-18T01:44:41.859Z,21.07
2022-09-18T01:47:14.559Z,19.57
2022-09-18T01:49:46.555Z,18.70
2022-09-18T01:52:20.122Z,18.23
2022-09-18T01:54:51.641Z,18.53
2022-09-18T01:57:23.757Z,20.03
2022-09-18T01:59:57.290Z,18.10
2022-09-18T02:02:32.426Z,16.80
2022-09-18T02:05:03.557Z,16.97
2022-09-18T02:07:38.654Z,15.43
2022-09-18T02:10:08.223Z,14.80
2022-09-18T02:12:39.723Z,15.33
2022-09-18T02:15:12.767Z,14.13
2022-09-18T02:17:44.993Z,15.53
2022-09-18T02:20:19.526Z,15.00
2022-09-18T02:22:50.538Z,15.00
2022-09-18T02:25:24.670Z,15.13
2022-09-18T02:27:54.854Z,15.60
2022-09-18T02:30:24.785Z,15.80
2022-09-18T02:32:55.511Z,15.90
2022-09-18T02:35:26.441Z,14.27
2022-09-18T02:37:59.525Z,14.10
2022-09-18T02:40:38.933Z,13.90
2022-09-18T02:43:19.502Z,14.17
2022-09-18T02:45:57.918Z,12.30
2022-09-18T02:48:57.066Z,14.00
2022-09-18T02:51:32.689Z,15.50
2022-09-18T02:54:05.559Z,15.83
2022-09-18T02:56:40.549Z,15.40
2022-09-18T02:59:13.502Z,16.30
2022-09-18T03:01:46.161Z,17.30
2022-09-18T03:04:16.374Z,16.83
2022-09-18T03:06:43.899Z,15.20
2022-09-18T03:09:11.467Z,16.43
2022-09-18T03:11:39.041Z,14.67
2022-09-18T03:14:06.569Z,14.53
2022-09-18T03:16:34.174Z,14.47
2022-09-18T03:19:03.237Z,14.90
2022-09-18T03:21:31.093Z,15.23
2022-09-18T03:23:58.936Z,14.83
2022-09-18T03:26:26.469Z,15.23
2022-09-18T03:28:53.997Z,14.00
2022-09-18T03:31:21.643Z,13.50
2022-09-18T03:33:49.202Z,13.77
2022-09-18T03:36:18.299Z,14.67
2022-09-18T03:38:45.831Z,13.67
2022-09-18T03:41:13.367Z,14.90
2022-09-18T03:43:40.882Z,14.97
2022-09-18T03:46:08.517Z,14.73
2022-09-18T03:48:36.146Z,15.13
2022-09-18T03:51:03.741Z,14.70
2022-09-18T03:53:32.613Z,15.67
2022-09-18T03:56:00.154Z,15.20
2022-09-18T03:58:27.665Z,15.50
2022-09-18T04:00:55.465Z,14.33
2022-09-18T04:03:23.070Z,15.30
2022-09-18T04:05:51.080Z,16.23
2022-09-18T04:08:19.098Z,14.40
2022-09-18T04:10:49.365Z,15.33
2022-09-18T04:13:17.101Z,15.50
2022-09-18T04:15:45.220Z,17.00
2022-09-18T04:18:12.851Z,17.27
2022-09-18T04:20:40.417Z,17.00
2022-09-18T04:23:07.962Z,15.40
2022-09-18T04:25:35.469Z,16.60
2022-09-18T04:28:04.478Z,15.97
2022-09-18T04:30:31.992Z,16.27
2022-09-18T04:32:59.540Z,15.37
2022-09-18T04:35:28.049Z,16.60
2022-09-18T04:37:55.582Z,16.73
2022-09-18T04:40:23.188Z,16.20
2022-09-18T04:42:50.769Z,16.33
2022-09-18T04:45:19.722Z,14.60
2022-09-18T04:47:48.498Z,15.20
2022-09-18T04:50:16.287Z,14.50
2022-09-18T04:52:44.461Z,14.37
2022-09-18T04:55:12.018Z,14.90
2022-09-18T04:57:39.565Z,16.43
2022-09-18T05:00:09.148Z,16.30
2022-09-18T05:02:38.754Z,16.50
2022-09-18T05:05:07.050Z,15.80
2022-09-18T05:07:34.874Z,16.80
2022-09-18T05:10:02.521Z,21.67
2022-09-18T05:12:30.066Z,18.77
2022-09-18T05:14:57.601Z,16.47
2022-09-18T05:17:25.201Z,17.00
2022-09-18T05:19:54.094Z,17.17
2022-09-18T05:22:21.658Z,16.20
2022-09-18T05:24:49.186Z,17.83
2022-09-18T05:27:16.906Z,16.57
2022-09-18T05:29:44.453Z,15.87
2022-09-18T05:32:11.977Z,17.23
2022-09-18T05:34:39.486Z,16.80
2022-09-18T05:37:08.926Z,15.93
2022-09-18T05:39:36.437Z,15.30
2022-09-18T05:42:04.446Z,16.93
2022-09-18T05:44:31.980Z,17.13
2022-09-18T05:46:59.591Z,15.10
2022-09-18T05:49:27.486Z,16.20
2022-09-18T05:51:55.365Z,16.97
2022-09-18T05:54:24.255Z,16.60
2022-09-18T05:56:51.785Z,16.73
2022-09-18T05:59:19.306Z,17.97
2022-09-18T06:01:47.593Z,15.67
2022-09-18T06:04:15.318Z,16.13
2022-09-18T06:06:42.906Z,16.03
2022-09-18T06:09:10.438Z,16.43
2022-09-18T06:11:39.345Z,16.60
2022-09-18T06:14:06.861Z,16.47
2022-09-18T06:16:37.436Z,17.37
2022-09-18T06:19:07.537Z,15.60
2022-09-18T06:21:35.153Z,14.87
2022-09-18T06:24:02.994Z,13.00
2022-09-18T06:26:31.394Z,13.70
2022-09-18T06:29:00.319Z,13.43
2022-09-18T06:31:28.359Z,11.47
2022-09-18T06:33:56.107Z,12.80
2022-09-18T06:36:23.645Z,11.37
2022-09-18T06:38:51.566Z,13.03
2022-09-18T06:41:19.098Z,12.10
2022-09-18T06:43:50.100Z,12.63
2022-09-18T06:46:19.019Z,12.67
2022-09-18T06:48:49.282Z,12.43
2022-09-18T06:51:16.839Z,13.17
2022-09-18T06:53:45.081Z,11.03
2022-09-18T06:56:12.676Z,10.37
2022-09-18T06:58:40.214Z,10.70
2022-09-18T07:01:07.786Z,10.77
2022-09-18T07:03:36.702Z,10.27
2022-09-18T07:06:04.533Z,10.60
2022-09-18T07:08:32.195Z,10.03
2022-09-18T07:11:01.996Z,9.40
2022-09-18T07:13:31.266Z,8.90
2022-09-18T07:15:59.366Z,8.90
2022-09-18T07:18:27.309Z,8.33
2022-09-18T07:20:56.230Z,8.20
2022-09-18T07:23:24.221Z,9.63
2022-09-18T07:25:51.757Z,9.40
2022-09-18T07:28:19.341Z,9.40
2022-09-18T07:30:47.414Z,8.83
2022-09-18T07:33:14.954Z,9.90
2022-09-18T07:35:42.474Z,10.03
2022-09-18T07:38:12.019Z,10.00
2022-09-18T07:40:41.206Z,10.40
2022-09-18T07:43:10.687Z,10.10
2022-09-18T07:45:39.089Z,9.97
2022-09-18T07:48:08.461Z,9.80
2022-09-18T07:50:36.033Z,9.20
2022-09-18T07:53:05.447Z,10.30
2022-09-18T07:55:36.152Z,9.63
2022-09-18T07:58:06.078Z,9.00
2022-09-18T08:00:37.037Z,9.67
2022-09-18T08:03:06.080Z,8.63
2022-09-18T08:05:34.306Z,7.97
2022-09-18T08:08:05.595Z,8.90
2022-09-18T08:10:35.265Z,11.60
2022-09-18T08:13:03.681Z,13.50
2022-09-18T08:15:31.795Z,13.50
2022-09-18T08:17:59.407Z,12.60
2022-09-18T08:20:26.989Z,14.60
2022-09-18T08:22:54.641Z,10.27
2022-09-18T08:25:23.183Z,10.33
2022-09-18T08:27:52.067Z,9.80
2022-09-18T08:30:19.862Z,10.60
2022-09-18T08:32:47.393Z,10.63
2022-09-18T08:35:15.334Z,12.03
2022-09-18T08:37:48.671Z,12.33
2022-09-18T08:40:19.625Z,12.40
2022-09-18T08:43:02.024Z,13.30
2022-09-18T08:45:43.017Z,12.30
2022-09-18T08:48:16.580Z,12.60
2022-09-18T08:50:50.930Z,12.43
2022-09-18T08:53:24.411Z,11.00
2022-09-18T08:55:55.030Z,11.27
2022-09-18T08:58:31.779Z,11.80
2022-09-18T09:01:04.099Z,10.30
2022-09-18T09:03:43.062Z,10.07
2022-09-18T09:06:27.155Z,11.77
2022-09-18T09:09:22.674Z,11.17
2022-09-18T09:11:58.615Z,11.37
2022-09-18T09:14:56.601Z,12.07
2022-09-18T09:17:38.776Z,12.87
2022-09-18T09:20:19.005Z,12.30
2022-09-18T09:22:57.194Z,11.60
2022-09-18T09:25:31.310Z,10.53
2022-09-18T09:28:14.497Z,11.20
2022-09-18T09:30:48.044Z,11.50
2022-09-18T09:33:21.734Z,10.50
2022-09-18T09:35:53.294Z,10.77
2022-09-18T09:38:37.194Z,11.20
2022-09-18T09:41:14.434Z,11.30
2022-09-18T09:43:45.917Z,11.40
2022-09-18T09:46:24.393Z,11.00
2022-09-18T09:48:58.347Z,11.93
2022-09-18T09:51:32.078Z,11.20
2022-09-18T09:54:01.439Z,10.70
2022-09-18T09:56:38.265Z,11.20
2022-09-18T09:59:18.326Z,10.73
2022-09-18T10:01:57.021Z,10.90
2022-09-18T10:04:35.103Z,10.10
2022-09-18T10:07:11.287Z,9.80
2022-09-18T10:09:46.657Z,9.20
2022-09-18T10:12:22.098Z,8.60
2022-09-18T10:14:53.340Z,8.40
2022-09-18T10:17:23.203Z,8.00
2022-09-18T10:19:50.785Z,7.20
2022-09-18T10:22:23.411Z,7.40
2022-09-18T10:24:56.874Z,7.70
2022-09-18T10:27:24.586Z,7.63
2022-09-18T10:29:54.218Z,8.40
2022-09-18T10:32:38.902Z,7.70
2022-09-18T10:35:44.409Z,6.37
2022-09-18T10:38:33.402Z,6.83
2022-09-18T10:41:33.792Z,7.10
2022-09-18T10:44:07.060Z,6.50
2022-09-18T10:46:37.122Z,6.40
2022-09-18T10:49:20.497Z,6.30
2022-09-18T10:51:48.096Z,6.73
2022-09-18T10:54:17.946Z,6.03
2022-09-18T10:56:46.006Z,6.40
2022-09-18T10:59:35.075Z,6.37
2022-09-18T11:02:05.145Z,6.30
2022-09-18T11:04:34.885Z,6.90
2022-09-18T11:07:07.338Z,6.60
2022-09-18T11:09:39.075Z,5.70
2022-09-18T11:12:15.560Z,6.60
2022-09-18T11:14:46.855Z,6.40
2022-09-18T11:17:24.244Z,6.70
2022-09-18T11:19:55.303Z,6.50
2022-09-18T11:22:35.775Z,6.00
2022-09-18T11:25:24.971Z,5.67
2022-09-18T11:27:54.216Z,5.50
2022-09-18T11:30:24.647Z,5.67
2022-09-18T11:32:57.886Z,6.10
2022-09-18T11:35:29.771Z,6.17
2022-09-18T11:38:00.607Z,5.90
2022-09-18T11:40:32.521Z,6.00
2022-09-18T11:43:05.424Z,7.10
2022-09-18T11:45:45.843Z,7.20
2022-09-18T11:48:23.294Z,8.43
2022-09-18T11:50:56.141Z,8.50
2022-09-18T11:53:26.290Z,8.60
2022-09-18T11:56:00.805Z,8.20
2022-09-18T11:58:34.269Z,8.53
2022-09-18T12:01:13.596Z,7.90
2022-09-18T12:03:47.356Z,8.23
2022-09-18T12:06:26.413Z,9.07
2022-09-18T12:08:58.061Z,8.30
2022-09-18T12:11:32.817Z,9.60
2022-09-18T12:14:12.589Z,10.20
2022-09-18T12:16:46.123Z,9.23
2022-09-18T12:19:20.702Z,9.50
2022-09-18T12:21:55.786Z,9.27
2022-09-18T12:24:24.097Z,9.20
2022-09-18T12:27:01.054Z,8.67
2022-09-18T12:29:50.264Z,8.33
2022-09-18T12:32:32.514Z,7.33
2022-09-18T12:35:08.393Z,6.87
2022-09-18T12:37:48.053Z,6.63
2022-09-18T12:40:37.750Z,6.80
2022-09-18T12:43:22.686Z,6.53
2022-09-18T12:46:11.621Z,5.57
2022-09-18T12:49:01.423Z,5.10
2022-09-18T12:51:36.647Z,4.43
2022-09-18T12:54:27.339Z,4.70
2022-09-18T12:57:06.683Z,3.93
2022-09-18T12:59:46.405Z,4.63
2022-09-18T13:02:26.519Z,4.47
2022-09-18T13:04:59.213Z,4.50
2022-09-18T13:07:33.082Z,4.60
2022-09-18T13:10:07.123Z,5.10
2022-09-18T13:12:40.627Z,4.80
2022-09-18T13:15:15.846Z,4.20
2022-09-18T13:17:48.834Z,4.20
2022-09-18T13:20:23.977Z,4.43
2022-09-18T13:22:54.031Z,4.60
2022-09-18T13:25:28.393Z,4.17
2022-09-18T13:27:58.183Z,4.73
2022-09-18T13:30:28.862Z,3.70
2022-09-18T13:32:57.932Z,4.70
2022-09-18T13:35:28.847Z,4.83
2022-09-18T13:38:16.515Z,3.90
2022-09-18T13:40:48.012Z,4.20
2022-09-18T13:43:31.526Z,4.00
2022-09-18T13:46:05.927Z,4.40
2022-09-18T13:48:41.916Z,4.57
2022-09-18T13:51:12.161Z,4.50
2022-09-18T13:53:41.705Z,4.30
2022-09-18T13:56:12.282Z,4.30
2022-09-18T13:58:55.888Z,4.00
2022-09-18T14:01:56.938Z,4.40
2022-09-18T14:04:59.644Z,4.30
2022-09-18T14:08:04.140Z,4.40
2022-09-18T14:10:36.306Z,4.00
2022-09-18T14:13:34.244Z,4.10
2022-09-18T14:16:06.963Z,4.43
2022-09-18T14:18:38.481Z,4.87
2022-09-18T14:21:22.298Z,4.93
2022-09-18T14:24:32.013Z,4.23
2022-09-18T14:27:02.452Z,3.20
2022-09-18T14:29:34.530Z,3.90
2022-09-18T14:32:03.181Z,3.70
2022-09-18T14:34:37.905Z,4.97
2022-09-18T14:37:24.323Z,4.07
2022-09-18T14:39:53.926Z,3.80
2022-09-18T14:42:32.476Z,3.73
2022-09-18T14:45:21.165Z,4.40
2022-09-18T14:47:49.946Z,3.90
2022-09-18T14:50:30.862Z,4.03
2022-09-18T14:53:00.458Z,4.20
2022-09-18T14:55:33.792Z,3.73
2022-09-18T14:58:06.680Z,3.70
2022-09-18T15:00:38.002Z,3.70
2022-09-18T15:03:08.674Z,4.30
2022-09-18T15:05:37.154Z,4.90
2022-09-18T15:08:08.189Z,4.40
2022-09-18T15:10:40.085Z,4.17
2022-09-18T15:13:10.305Z,4.00
2022-09-18T15:15:40.417Z,6.43
2022-09-18T15:18:20.330Z,5.23
2022-09-18T15:20:50.529Z,5.13
2022-09-18T15:23:20.191Z,4.50
2022-09-18T15:25:52.293Z,3.90
2022-09-18T15:28:21.421Z,4.20
2022-09-18T15:30:52.158Z,3.90
2022-09-18T15:33:25.413Z,3.70
2022-09-18T15:35:54.201Z,6.20
2022-09-18T15:38:26.588Z,3.90
2022-09-18T15:40:54.689Z,5.20
2022-09-18T15:43:43.406Z,4.20
2022-09-18T15:46:24.446Z,5.33
2022-09-18T15:48:52.336Z,4.80
2022-09-18T15:51:25.071Z,4.10
2022-09-18T15:54:09.517Z,5.33
2022-09-18T15:56:39.904Z,4.00
2022-09-18T15:59:16.953Z,4.80
2022-09-18T16:01:48.804Z,4.27
2022-09-18T16:04:20.161Z,4.10
2022-09-18T16:07:19.021Z,4.30
2022-09-18T16:09:48.045Z,4.03
2022-09-18T16:12:43.259Z,4.00
2022-09-18T16:15:20.546Z,4.10
2022-09-18T16:17:58.934Z,4.20
2022-09-18T16:20:41.499Z,4.20
2022-09-18T16:23:24.060Z,4.10
2022-09-18T16:26:07.950Z,4.20
2022-09-18T16:28:37.618Z,4.37
2022-09-18T16:31:05.413Z,4.10
2022-09-18T16:33:35.354Z,4.00
2022-09-18T16:36:05.698Z,4.50
2022-09-18T16:38:33.418Z,6.83
2022-09-18T16:41:01.070Z,4.70
2022-09-18T16:43:29.670Z,3.70
2022-09-18T16:45:57.290Z,4.47
2022-09-18T16:48:25.885Z,5.10
2022-09-18T16:50:54.806Z,6.23
2022-09-18T16:53:22.347Z,4.40
2022-09-18T16:55:53.013Z,4.90
2022-09-18T16:58:21.484Z,11.20
2022-09-18T17:00:49.576Z,13.40
2022-09-18T17:03:18.206Z,12.27
2022-09-18T17:05:45.860Z,12.50
2022-09-18T17:08:14.750Z,13.40
2022-09-18T17:10:45.171Z,12.60
2022-09-18T17:13:13.531Z,12.57
2022-09-18T17:15:41.090Z,14.10
2022-09-18T17:18:08.723Z,15.27
2022-09-18T17:20:36.274Z,16.10
2022-09-18T17:23:03.905Z,15.70
2022-09-18T17:25:32.825Z,14.50
2022-09-18T17:28:00.383Z,15.83
2022-09-18T17:30:27.960Z,16.33
2022-09-18T17:32:55.597Z,14.60
2022-09-18T17:35:23.154Z,12.60
2022-09-18T17:37:51.619Z,10.60
2022-09-18T17:40:20.382Z,10.10
2022-09-18T17:42:49.323Z,10.20
2022-09-18T17:45:17.012Z,10.77
2022-09-18T17:47:44.561Z,10.20
2022-09-18T17:50:12.211Z,10.10
2022-09-18T17:52:40.008Z,10.30
2022-09-18T17:55:09.183Z,10.40
2022-09-18T17:57:38.085Z,10.50
2022-09-18T18:00:09.536Z,10.20
2022-09-18T18:02:37.078Z,11.00
2022-09-18T18:05:05.020Z,10.80
2022-09-18T18:07:32.619Z,10.10
2022-09-18T18:10:00.175Z,9.77
2022-09-18T18:12:27.702Z,10.00
2022-09-18T18:14:55.230Z,10.30
2022-09-18T18:17:24.541Z,10.40
2022-09-18T18:19:52.081Z,10.97
2022-09-18T18:22:19.701Z,10.70
2022-09-18T18:24:49.550Z,11.30
2022-09-18T18:27:18.873Z,11.30
2022-09-18T18:29:47.417Z,11.50
2022-09-18T18:32:14.980Z,11.40
2022-09-18T18:34:43.842Z,11.80
2022-09-18T18:37:11.385Z,12.50
2022-09-18T18:39:38.901Z,12.60
2022-09-18T18:42:07.017Z,12.60
2022-09-18T18:44:36.393Z,12.57
2022-09-18T18:47:04.728Z,13.13
2022-09-18T18:49:32.828Z,13.97
2022-09-18T18:52:04.065Z,13.90
2022-09-18T18:54:32.113Z,13.80
2022-09-18T18:56:59.683Z,13.90
2022-09-18T18:59:27.212Z,13.87
2022-09-18T19:01:56.321Z,14.30
2022-09-18T19:04:24.633Z,14.17
2022-09-18T19:06:53.883Z,15.17
2022-09-18T19:09:25.910Z,15.80
2022-09-18T19:11:54.161Z,15.90
2022-09-18T19:14:23.780Z,15.60
2022-09-18T19:16:52.253Z,16.67
2022-09-18T19:19:21.873Z,18.90
2022-09-18T19:21:49.405Z,34.30
2022-09-18T19:24:18.477Z,47.80
2022-09-18T19:26:48.884Z,42.33
2022-09-18T19:29:19.017Z,196.00
2022-09-18T19:31:47.959Z,259.43
2022-09-18T19:34:18.180Z,305.20
2022-09-18T19:36:47.056Z,340.00
2022-09-18T19:39:15.099Z,400.13
2022-09-18T19:41:46.512Z,448.10
2022-09-18T19:44:31.165Z,439.40
2022-09-18T19:47:01.648Z,426.80
2022-09-18T19:49:33.070Z,421.30
2022-09-18T19:52:01.976Z,426.10
2022-09-18T19:54:30.169Z,428.00
2022-09-18T19:56:58.928Z,427.90
2022-09-18T19:59:27.821Z,420.20
2022-09-18T20:01:55.878Z,397.93
2022-09-18T20:04:23.457Z,395.40
2022-09-18T20:06:50.989Z,392.97
2022-09-18T20:09:18.557Z,397.83
2022-09-18T20:11:48.291Z,390.03
2022-09-18T20:14:16.245Z,383.27
2022-09-18T20:16:45.166Z,375.40
2022-09-18T20:19:12.746Z,361.57
2022-09-18T20:21:40.445Z,340.43
2022-09-18T20:24:08.074Z,288.43
2022-09-18T20:26:35.585Z,245.50
2022-09-18T20:29:03.200Z,223.50
2022-09-18T20:31:30.804Z,211.70
2022-09-18T20:34:00.920Z,158.10
2022-09-18T20:36:29.355Z,122.20
2022-09-18T20:38:57.912Z,95.83
2022-09-18T20:41:29.819Z,71.77
2022-09-18T20:43:58.557Z,35.93
2022-09-18T20:46:27.594Z,33.80
2022-09-18T20:48:55.886Z,31.10
2022-09-18T20:51:26.565Z,30.13
2022-09-18T20:53:56.123Z,28.13
2022-09-18T20:56:24.978Z,25.93
2022-09-18T20:58:53.081Z,24.70
2022-09-18T21:01:23.078Z,47.70
2022-09-18T21:03:56.433Z,21.77
2022-09-18T21:06:27.409Z,21.57
2022-09-18T21:08:56.196Z,66.50
2022-09-18T21:11:25.417Z,20.47
2022-09-18T21:13:54.602Z,19.87
2022-09-18T21:16:23.166Z,20.53
2022-09-18T21:18:53.441Z,21.03
2022-09-18T21:21:21.269Z,131.63
2022-09-18T21:23:58.437Z,20.20
2022-09-18T21:26:27.962Z,20.40
2022-09-18T21:28:57.581Z,20.10
2022-09-18T21:31:25.807Z,74.27
2022-09-18T21:33:54.108Z,19.10
2022-09-18T21:36:22.594Z,19.40
2022-09-18T21:38:52.179Z,19.30
2022-09-18T21:41:21.733Z,19.63
2022-09-18T21:43:51.010Z,19.93
2022-09-18T21:46:20.691Z,19.83
2022-09-18T21:48:52.828Z,20.13
2022-09-18T21:51:20.589Z,19.40
2022-09-18T21:53:48.600Z,19.80
2022-09-18T21:56:20.676Z,19.40
2022-09-18T21:58:48.917Z,19.00
2022-09-18T22:01:19.152Z,19.53
2022-09-18T22:03:52.172Z,19.57
2022-09-18T22:06:20.978Z,19.90
2022-09-18T22:08:50.343Z,20.93
2022-09-18T22:11:20.251Z,20.40
2022-09-18T22:13:47.833Z,20.20
2022-09-18T22:16:15.412Z,20.30
2022-09-18T22:18:43.278Z,20.70
2022-09-18T22:21:20.326Z,19.60
2022-09-18T22:23:52.791Z,20.00
2022-09-18T22:26:22.514Z,19.50
2022-09-18T22:28:50.973Z,20.60
2022-09-18T22:31:19.199Z,20.13
2022-09-18T22:33:47.604Z,20.63
2022-09-18T22:36:15.752Z,20.27
2022-09-18T22:38:43.500Z,20.43
2022-09-18T22:41:11.346Z,19.90
2022-09-18T22:43:40.565Z,20.10
2022-09-18T22:46:10.617Z,20.53
2022-09-18T22:48:39.008Z,20.33
2022-09-18T22:51:11.368Z,20.70
2022-09-18T22:53:44.054Z,20.57
2022-09-18T22:56:14.502Z,20.20
2022-09-18T22:58:43.906Z,19.80
2022-09-18T23:01:13.893Z,20.63
2022-09-18T23:03:42.128Z,20.27
2022-09-18T23:06:10.665Z,19.43
2022-09-18T23:08:39.279Z,20.03
2022-09-18T23:11:09.509Z,19.90
2022-09-18T23:13:37.645Z,20.27
2022-09-18T23:16:09.545Z,20.07
2022-09-18T23:18:38.144Z,20.47
2022-09-18T23:21:07.841Z,21.00
2022-09-18T23:23:37.572Z,20.60
2022-09-18T23:26:08.454Z,20.50
2022-09-18T23:28:37.496Z,19.97
2022-09-18T23:31:09.435Z,20.27
2022-09-18T23:33:37.417Z,20.60
2022-09-18T23:36:09.842Z,20.53
2022-09-18T23:38:38.257Z,20.50
2022-09-18T23:41:08.458Z,20.23
2022-09-18T23:43:36.764Z,19.97
2022-09-18T23:46:05.818Z,20.47
2022-09-18T23:48:34.725Z,20.30
2022-09-18T23:51:03.362Z,20.27
2022-09-18T23:53:36.215Z,19.87
2022-09-18T23:56:07.222Z,19.83
2022-09-18T23:58:35.234Z,19.90
